CSCL Long Beach — VRCZ7 — position and weather

sailwx.info

Track history (hours):
 
Tides and Currents Weather Stations Pressure Air Temp Water Temp Dewpoint Dewpoint Depression Visibility Wind Speed Wind Dir Waves Ship Positions

CSCL Long Beach

Last reported at 2014-Sep-20 19:33 UTC. Time now 2014-Sep-20 19:58 UTC.
Position N 37°31' E 002°26'.

Length 336.7 m; beam 45.6 m; draft 15 m.

Type: Cargo ship. MMSI: 477883900.

Date/timePositionNaut miles runAvg speedWind from/ knotsBaromVisibWave heightAir tempDewpointWater temp
2014-Sep-20 19:33N 37°31' E 002°26'2020.1
2014-Sep-20 18:33N 37°38' E 002°50'2120.2
2014-Sep-20 17:32N 37°41' E 003°16'2020.6
2014-Sep-20 16:33N 37°42' E 003°42'2120.3
2014-Sep-20 15:32N 37°42' E 004°08'2020.2
2014-Sep-20 14:33N 37°44' E 004°33'2020.1
2014-Sep-20 13:33N 37°45' E 004°58'2320.1
2014-Sep-20 12:24N 37°47' E 005°27'1719.8
2014-Sep-20 11:33N 37°48' E 005°49'2019.6
2014-Sep-20 10:33N 37°48' E 006°13'9919.8
2014-Sep-20 05:33N 37°54' E 008°19'2019.7
2014-Sep-20 04:31N 37°55' E 008°44'1919.1
2014-Sep-20 03:33N 37°54' E 009°08'1919.0
2014-Sep-20 02:33N 37°50' E 009°32'2018.5
2014-Sep-20 01:29N 37°47' E 009°56'1818.2
2014-Sep-20 00:30N 37°43' E 010°18'1818.9
2014-Sep-19 23:33N 37°37' E 010°40'1919.4
2014-Sep-19 22:34N 37°30' E 011°02'14519.9
2014-Sep-19 15:19N 36°28' E 013°46'1519.6
2014-Sep-19 14:34N 36°23' E 014°03'2019.6
2014-Sep-19 13:32N 36°16' E 014°26'2019.7
2014-Sep-19 12:31N 36°11' E 014°50'1919.5
2014-Sep-19 11:33N 36°06' E 015°13'2019.6
2014-Sep-19 10:33N 36°01' E 015°36'  
Track history (hours):
 
Tides and Currents Weather Stations Pressure Air Temp Water Temp Dewpoint Dewpoint Depression Visibility Wind Speed Wind Dir Waves Ship Positions

CSCL Long Beach

Last reported at 2014-Sep-20 19:33 UTC. Time now 2014-Sep-20 19:58 UTC.
Position N 37°31' E 002°26'.

Length 336.7 m; beam 45.6 m; draft 15 m.

Type: Cargo ship. MMSI: 477883900.

Date/timePositionNaut miles runAvg speedWind from/ knotsBaromVisibWave heightAir tempDewpointWater temp
2014-Sep-20 19:33N 37°31' E 002°26'2020.1
2014-Sep-20 18:33N 37°38' E 002°50'2120.2
2014-Sep-20 17:32N 37°41' E 003°16'2020.6
2014-Sep-20 16:33N 37°42' E 003°42'2120.3
2014-Sep-20 15:32N 37°42' E 004°08'2020.2
2014-Sep-20 14:33N 37°44' E 004°33'2020.1
2014-Sep-20 13:33N 37°45' E 004°58'2320.1
2014-Sep-20 12:24N 37°47' E 005°27'1719.8
2014-Sep-20 11:33N 37°48' E 005°49'2019.6
2014-Sep-20 10:33N 37°48' E 006°13'9919.8
2014-Sep-20 05:33N 37°54' E 008°19'2019.7
2014-Sep-20 04:31N 37°55' E 008°44'1919.1
2014-Sep-20 03:33N 37°54' E 009°08'1919.0
2014-Sep-20 02:33N 37°50' E 009°32'2018.5
2014-Sep-20 01:29N 37°47' E 009°56'1818.2
2014-Sep-20 00:30N 37°43' E 010°18'1818.9
2014-Sep-19 23:33N 37°37' E 010°40'1919.4
2014-Sep-19 22:34N 37°30' E 011°02'14519.9
2014-Sep-19 15:19N 36°28' E 013°46'1519.6
2014-Sep-19 14:34N 36°23' E 014°03'2019.6
2014-Sep-19 13:32N 36°16' E 014°26'2019.7
2014-Sep-19 12:31N 36°11' E 014°50'1919.5
2014-Sep-19 11:33N 36°06' E 015°13'2019.6
2014-Sep-19 10:33N 36°01' E 015°36'  

Dump ship's entire track history